sensor_id;sensor_type;location;lat;lon;timestamp;P1;durP1;ratioP1;P2;durP2;ratioP2
47239;SDS011;32978;53.586;10.052;2023-02-28T00:01:07;6.22;;;4.07;;
47239;SDS011;32978;53.586;10.052;2023-02-28T00:06:04;7.63;;;4.00;;
47239;SDS011;32978;53.586;10.052;2023-02-28T00:11:06;6.63;;;4.15;;
47239;SDS011;32978;53.586;10.052;2023-02-28T00:16:06;7.07;;;4.38;;
47239;SDS011;32978;53.586;10.052;2023-02-28T00:21:05;8.50;;;4.97;;
47239;SDS011;32978;53.586;10.052;2023-02-28T00:26:02;8.15;;;5.30;;
47239;SDS011;32978;53.586;10.052;2023-02-28T00:30:59;8.82;;;4.88;;
47239;SDS011;32978;53.586;10.052;2023-02-28T00:36:03;7.82;;;4.70;;
47239;SDS011;32978;53.586;10.052;2023-02-28T00:41:04;8.75;;;4.63;;
47239;SDS011;32978;53.586;10.052;2023-02-28T00:46:01;11.18;;;4.63;;
47239;SDS011;32978;53.586;10.052;2023-02-28T00:50:58;6.30;;;4.22;;
47239;SDS011;32978;53.586;10.052;2023-02-28T00:55:55;10.20;;;4.35;;
47239;SDS011;32978;53.586;10.052;2023-02-28T01:00:51;6.90;;;3.97;;
47239;SDS011;32978;53.586;10.052;2023-02-28T01:05:49;6.75;;;3.90;;
47239;SDS011;32978;53.586;10.052;2023-02-28T01:10:46;7.88;;;4.07;;
47239;SDS011;32978;53.586;10.052;2023-02-28T01:15:45;5.47;;;3.95;;
47239;SDS011;32978;53.586;10.052;2023-02-28T01:20:48;7.07;;;4.13;;
47239;SDS011;32978;53.586;10.052;2023-02-28T01:25:45;5.93;;;3.80;;
47239;SDS011;32978;53.586;10.052;2023-02-28T01:30:41;7.07;;;3.65;;
47239;SDS011;32978;53.586;10.052;2023-02-28T01:35:38;9.30;;;4.60;;
47239;SDS011;32978;53.586;10.052;2023-02-28T01:40:34;7.15;;;4.18;;
47239;SDS011;32978;53.586;10.052;2023-02-28T01:45:31;6.22;;;3.78;;
47239;SDS011;32978;53.586;10.052;2023-02-28T01:50:33;8.18;;;4.40;;
47239;SDS011;32978;53.586;10.052;2023-02-28T01:55:35;8.13;;;3.75;;
47239;SDS011;32978;53.586;10.052;2023-02-28T02:00:33;5.95;;;4.15;;
47239;SDS011;32978;53.586;10.052;2023-02-28T02:05:30;7.78;;;4.13;;
47239;SDS011;32978;53.586;10.052;2023-02-28T02:10:32;6.90;;;4.25;;
47239;SDS011;32978;53.586;10.052;2023-02-28T02:36:53;9.98;;;4.85;;
47239;SDS011;32978;53.586;10.052;2023-02-28T02:42:14;6.40;;;4.20;;
47239;SDS011;32978;53.586;10.052;2023-02-28T02:47:16;7.28;;;4.75;;
47239;SDS011;32978;53.586;10.052;2023-02-28T02:52:16;9.55;;;4.47;;
47239;SDS011;32978;53.586;10.052;2023-02-28T02:57:22;11.30;;;5.47;;
47239;SDS011;32978;53.586;10.052;2023-02-28T03:02:25;8.48;;;4.68;;
47239;SDS011;32978;53.586;10.052;2023-02-28T03:07:24;12.23;;;4.88;;
47239;SDS011;32978;53.586;10.052;2023-02-28T03:12:22;8.15;;;4.70;;
47239;SDS011;32978;53.586;10.052;2023-02-28T03:17:35;8.85;;;5.05;;
47239;SDS011;32978;53.586;10.052;2023-02-28T03:33:34;10.25;;;6.20;;
47239;SDS011;32978;53.586;10.052;2023-02-28T03:38:40;9.75;;;5.50;;
47239;SDS011;32978;53.586;10.052;2023-02-28T03:43:42;11.00;;;6.40;;
47239;SDS011;32978;53.586;10.052;2023-02-28T03:48:45;9.10;;;5.78;;
47239;SDS011;32978;53.586;10.052;2023-02-28T03:53:50;9.98;;;6.13;;
47239;SDS011;32978;53.586;10.052;2023-02-28T03:59:05;9.38;;;6.60;;
47239;SDS011;32978;53.586;10.052;2023-02-28T04:04:09;9.18;;;6.28;;
47239;SDS011;32978;53.586;10.052;2023-02-28T04:09:08;11.02;;;6.40;;
47239;SDS011;32978;53.586;10.052;2023-02-28T04:14:05;15.93;;;7.55;;
47239;SDS011;32978;53.586;10.052;2023-02-28T04:19:03;10.40;;;6.93;;
47239;SDS011;32978;53.586;10.052;2023-02-28T04:24:02;7.70;;;6.53;;
47239;SDS011;32978;53.586;10.052;2023-02-28T04:28:59;7.95;;;6.88;;
47239;SDS011;32978;53.586;10.052;2023-02-28T04:33:56;13.30;;;7.25;;
47239;SDS011;32978;53.586;10.052;2023-02-28T04:38:53;14.90;;;7.20;;
47239;SDS011;32978;53.586;10.052;2023-02-28T04:43:53;10.85;;;7.60;;
47239;SDS011;32978;53.586;10.052;2023-02-28T04:48:49;10.98;;;7.72;;
47239;SDS011;32978;53.586;10.052;2023-02-28T04:53:46;12.55;;;7.72;;
47239;SDS011;32978;53.586;10.052;2023-02-28T04:58:44;12.82;;;7.80;;
47239;SDS011;32978;53.586;10.052;2023-02-28T05:03:41;10.32;;;8.23;;
47239;SDS011;32978;53.586;10.052;2023-02-28T05:08:38;11.10;;;7.95;;
47239;SDS011;32978;53.586;10.052;2023-02-28T05:13:35;11.63;;;8.05;;
47239;SDS011;32978;53.586;10.052;2023-02-28T05:18:32;10.55;;;8.77;;
47239;SDS011;32978;53.586;10.052;2023-02-28T05:23:28;14.50;;;8.25;;
47239;SDS011;32978;53.586;10.052;2023-02-28T05:28:25;12.25;;;8.27;;
47239;SDS011;32978;53.586;10.052;2023-02-28T05:33:21;10.38;;;9.25;;
47239;SDS011;32978;53.586;10.052;2023-02-28T05:38:18;10.38;;;9.20;;
47239;SDS011;32978;53.586;10.052;2023-02-28T05:43:14;12.15;;;9.50;;
47239;SDS011;32978;53.586;10.052;2023-02-28T05:48:11;12.90;;;9.38;;
47239;SDS011;32978;53.586;10.052;2023-02-28T05:53:07;10.25;;;9.00;;
47239;SDS011;32978;53.586;10.052;2023-02-28T05:58:04;14.63;;;10.30;;
47239;SDS011;32978;53.586;10.052;2023-02-28T06:03:00;11.60;;;9.40;;
47239;SDS011;32978;53.586;10.052;2023-02-28T06:07:58;13.48;;;9.88;;
47239;SDS011;32978;53.586;10.052;2023-02-28T06:12:54;12.05;;;9.32;;
47239;SDS011;32978;53.586;10.052;2023-02-28T06:17:51;14.65;;;10.27;;
47239;SDS011;32978;53.586;10.052;2023-02-28T06:22:48;11.27;;;10.05;;
47239;SDS011;32978;53.586;10.052;2023-02-28T06:27:46;13.18;;;10.55;;
47239;SDS011;32978;53.586;10.052;2023-02-28T06:32:44;17.25;;;11.35;;
47239;SDS011;32978;53.586;10.052;2023-02-28T06:37:40;12.65;;;11.18;;
47239;SDS011;32978;53.586;10.052;2023-02-28T06:42:38;16.15;;;11.10;;
47239;SDS011;32978;53.586;10.052;2023-02-28T06:47:34;12.55;;;11.13;;
47239;SDS011;32978;53.586;10.052;2023-02-28T06:52:32;12.90;;;11.70;;
47239;SDS011;32978;53.586;10.052;2023-02-28T06:57:32;14.10;;;11.05;;
47239;SDS011;32978;53.586;10.052;2023-02-28T07:02:30;13.55;;;11.43;;
47239;SDS011;32978;53.586;10.052;2023-02-28T07:07:27;18.70;;;11.43;;
47239;SDS011;32978;53.586;10.052;2023-02-28T07:12:24;13.25;;;11.18;;
47239;SDS011;32978;53.586;10.052;2023-02-28T07:17:20;18.10;;;11.65;;
47239;SDS011;32978;53.586;10.052;2023-02-28T07:22:17;19.02;;;12.55;;
47239;SDS011;32978;53.586;10.052;2023-02-28T07:27:13;18.88;;;12.25;;
47239;SDS011;32978;53.586;10.052;2023-02-28T07:32:19;17.08;;;11.90;;
47239;SDS011;32978;53.586;10.052;2023-02-28T07:37:16;17.42;;;11.63;;
47239;SDS011;32978;53.586;10.052;2023-02-28T07:42:12;24.35;;;12.40;;
47239;SDS011;32978;53.586;10.052;2023-02-28T07:47:09;75.45;;;18.70;;
47239;SDS011;32978;53.586;10.052;2023-02-28T07:52:06;145.32;;;24.40;;
47239;SDS011;32978;53.586;10.052;2023-02-28T07:57:03;108.47;;;23.63;;
47239;SDS011;32978;53.586;10.052;2023-02-28T08:01:59;32.38;;;12.13;;
47239;SDS011;32978;53.586;10.052;2023-02-28T08:06:55;31.25;;;12.60;;
47239;SDS011;32978;53.586;10.052;2023-02-28T08:11:52;16.52;;;11.82;;
47239;SDS011;32978;53.586;10.052;2023-02-28T08:16:48;20.08;;;11.75;;
47239;SDS011;32978;53.586;10.052;2023-02-28T08:21:45;19.55;;;11.63;;
47239;SDS011;32978;53.586;10.052;2023-02-28T08:26:41;20.08;;;12.55;;
47239;SDS011;32978;53.586;10.052;2023-02-28T08:31:38;17.55;;;12.10;;
47239;SDS011;32978;53.586;10.052;2023-02-28T08:36:35;17.65;;;11.55;;
47239;SDS011;32978;53.586;10.052;2023-02-28T08:41:31;18.38;;;11.77;;
47239;SDS011;32978;53.586;10.052;2023-02-28T08:46:28;15.25;;;10.60;;
47239;SDS011;32978;53.586;10.052;2023-02-28T08:51:24;13.15;;;10.57;;
47239;SDS011;32978;53.586;10.052;2023-02-28T08:56:24;18.20;;;11.68;;
47239;SDS011;32978;53.586;10.052;2023-02-28T09:01:25;11.85;;;9.30;;
47239;SDS011;32978;53.586;10.052;2023-02-28T09:11:21;10.10;;;8.05;;
47239;SDS011;32978;53.586;10.052;2023-02-28T09:16:17;8.90;;;7.97;;
47239;SDS011;32978;53.586;10.052;2023-02-28T09:21:15;7.85;;;7.05;;
47239;SDS011;32978;53.586;10.052;2023-02-28T09:26:17;13.38;;;6.70;;
47239;SDS011;32978;53.586;10.052;2023-02-28T09:31:16;8.55;;;7.03;;
47239;SDS011;32978;53.586;10.052;2023-02-28T09:41:15;7.57;;;6.72;;
47239;SDS011;32978;53.586;10.052;2023-02-28T09:46:25;7.30;;;6.57;;
47239;SDS011;32978;53.586;10.052;2023-02-28T09:51:37;7.80;;;6.93;;
47239;SDS011;32978;53.586;10.052;2023-02-28T09:56:59;10.10;;;6.80;;
47239;SDS011;32978;53.586;10.052;2023-02-28T10:07:51;6.45;;;5.85;;
47239;SDS011;32978;53.586;10.052;2023-02-28T10:13:02;8.82;;;6.03;;
47239;SDS011;32978;53.586;10.052;2023-02-28T10:18:06;6.35;;;5.75;;
47239;SDS011;32978;53.586;10.052;2023-02-28T10:23:11;7.22;;;6.45;;
47239;SDS011;32978;53.586;10.052;2023-02-28T10:28:14;9.45;;;6.60;;
47239;SDS011;32978;53.586;10.052;2023-02-28T10:38:21;7.47;;;6.32;;
47239;SDS011;32978;53.586;10.052;2023-02-28T10:43:21;6.72;;;6.13;;
47239;SDS011;32978;53.586;10.052;2023-02-28T10:58:21;7.72;;;6.93;;
47239;SDS011;32978;53.586;10.052;2023-02-28T11:03:32;7.30;;;6.27;;
47239;SDS011;32978;53.586;10.052;2023-02-28T11:08:30;8.95;;;6.10;;
47239;SDS011;32978;53.586;10.052;2023-02-28T11:13:34;9.23;;;6.32;;
47239;SDS011;32978;53.586;10.052;2023-02-28T11:18:57;6.78;;;6.13;;
47239;SDS011;32978;53.586;10.052;2023-02-28T11:23:51;7.78;;;6.97;;
47239;SDS011;32978;53.586;10.052;2023-02-28T11:29:03;6.90;;;6.30;;
47239;SDS011;32978;53.586;10.052;2023-02-28T11:34:22;6.70;;;6.10;;
47239;SDS011;32978;53.586;10.052;2023-02-28T11:39:21;9.07;;;7.05;;
47239;SDS011;32978;53.586;10.052;2023-02-28T11:50:16;7.13;;;6.40;;
47239;SDS011;32978;53.586;10.052;2023-02-28T12:05:38;6.63;;;6.03;;
47239;SDS011;32978;53.586;10.052;2023-02-28T12:11:01;7.40;;;6.70;;
47239;SDS011;32978;53.586;10.052;2023-02-28T12:32:03;8.45;;;6.57;;
47239;SDS011;32978;53.586;10.052;2023-02-28T12:37:10;6.47;;;5.90;;
47239;SDS011;32978;53.586;10.052;2023-02-28T12:42:13;8.50;;;6.30;;
47239;SDS011;32978;53.586;10.052;2023-02-28T12:47:24;9.23;;;6.75;;
47239;SDS011;32978;53.586;10.052;2023-02-28T12:52:23;8.50;;;7.63;;
47239;SDS011;32978;53.586;10.052;2023-02-28T13:13:34;6.65;;;6.07;;
47239;SDS011;32978;53.586;10.052;2023-02-28T13:18:37;7.13;;;6.15;;
47239;SDS011;32978;53.586;10.052;2023-02-28T13:38:56;10.63;;;6.40;;
47239;SDS011;32978;53.586;10.052;2023-02-28T13:44:07;7.13;;;6.15;;
47239;SDS011;32978;53.586;10.052;2023-02-28T13:49:30;6.78;;;6.07;;
47239;SDS011;32978;53.586;10.052;2023-02-28T13:59:45;8.48;;;6.63;;
47239;SDS011;32978;53.586;10.052;2023-02-28T14:25:38;6.40;;;5.75;;
47239;SDS011;32978;53.586;10.052;2023-02-28T14:30:50;9.80;;;6.22;;
47239;SDS011;32978;53.586;10.052;2023-02-28T14:41:00;9.82;;;5.88;;
47239;SDS011;32978;53.586;10.052;2023-02-28T14:46:02;7.28;;;6.65;;
47239;SDS011;32978;53.586;10.052;2023-02-28T14:51:02;6.78;;;5.93;;
47239;SDS011;32978;53.586;10.052;2023-02-28T14:55:58;7.30;;;5.80;;
47239;SDS011;32978;53.586;10.052;2023-02-28T15:00:57;6.95;;;6.25;;
47239;SDS011;32978;53.586;10.052;2023-02-28T15:06:15;6.82;;;5.97;;
47239;SDS011;32978;53.586;10.052;2023-02-28T15:11:15;6.78;;;6.18;;
47239;SDS011;32978;53.586;10.052;2023-02-28T15:16:16;7.13;;;5.75;;
47239;SDS011;32978;53.586;10.052;2023-02-28T15:21:19;6.78;;;5.93;;
47239;SDS011;32978;53.586;10.052;2023-02-28T15:26:20;6.80;;;6.20;;
47239;SDS011;32978;53.586;10.052;2023-02-28T15:31:23;8.10;;;6.00;;
47239;SDS011;32978;53.586;10.052;2023-02-28T15:36:45;6.53;;;5.93;;
47239;SDS011;32978;53.586;10.052;2023-02-28T15:41:42;6.43;;;5.80;;
47239;SDS011;32978;53.586;10.052;2023-02-28T15:46:39;6.95;;;6.35;;
47239;SDS011;32978;53.586;10.052;2023-02-28T15:51:39;6.20;;;5.60;;
47239;SDS011;32978;53.586;10.052;2023-02-28T15:56:39;7.00;;;6.30;;
47239;SDS011;32978;53.586;10.052;2023-02-28T16:01:40;7.07;;;5.90;;
47239;SDS011;32978;53.586;10.052;2023-02-28T16:06:40;6.25;;;5.65;;
47239;SDS011;32978;53.586;10.052;2023-02-28T16:11:42;7.05;;;6.25;;
47239;SDS011;32978;53.586;10.052;2023-02-28T16:16:41;6.43;;;5.82;;
47239;SDS011;32978;53.586;10.052;2023-02-28T16:21:40;8.27;;;5.35;;
47239;SDS011;32978;53.586;10.052;2023-02-28T16:26:36;6.90;;;5.38;;
47239;SDS011;32978;53.586;10.052;2023-02-28T16:31:37;5.60;;;5.10;;
47239;SDS011;32978;53.586;10.052;2023-02-28T16:36:34;6.72;;;5.90;;
47239;SDS011;32978;53.586;10.052;2023-02-28T16:41:30;6.43;;;5.65;;
47239;SDS011;32978;53.586;10.052;2023-02-28T16:46:29;7.93;;;7.07;;
47239;SDS011;32978;53.586;10.052;2023-02-28T16:51:29;9.87;;;7.27;;
47239;SDS011;32978;53.586;10.052;2023-02-28T16:56:29;7.90;;;5.95;;
47239;SDS011;32978;53.586;10.052;2023-02-28T17:01:26;10.00;;;6.70;;
47239;SDS011;32978;53.586;10.052;2023-02-28T17:06:25;6.63;;;6.07;;
47239;SDS011;32978;53.586;10.052;2023-02-28T17:11:27;7.25;;;6.47;;
47239;SDS011;32978;53.586;10.052;2023-02-28T17:16:31;7.10;;;6.40;;
47239;SDS011;32978;53.586;10.052;2023-02-28T17:21:32;7.50;;;6.35;;
47239;SDS011;32978;53.586;10.052;2023-02-28T17:26:30;7.40;;;6.40;;
47239;SDS011;32978;53.586;10.052;2023-02-28T17:31:27;7.25;;;6.55;;
47239;SDS011;32978;53.586;10.052;2023-02-28T17:36:25;7.80;;;7.00;;
47239;SDS011;32978;53.586;10.052;2023-02-28T17:41:23;8.07;;;7.20;;
47239;SDS011;32978;53.586;10.052;2023-02-28T17:46:21;10.18;;;8.10;;
47239;SDS011;32978;53.586;10.052;2023-02-28T17:51:21;7.55;;;6.85;;
47239;SDS011;32978;53.586;10.052;2023-02-28T17:56:20;9.20;;;7.00;;
47239;SDS011;32978;53.586;10.052;2023-02-28T18:01:21;10.30;;;7.90;;
47239;SDS011;32978;53.586;10.052;2023-02-28T18:06:27;8.30;;;7.13;;
47239;SDS011;32978;53.586;10.052;2023-02-28T18:11:29;9.48;;;7.85;;
47239;SDS011;32978;53.586;10.052;2023-02-28T18:16:38;7.95;;;6.82;;
47239;SDS011;32978;53.586;10.052;2023-02-28T18:21:35;8.38;;;7.20;;
47239;SDS011;32978;53.586;10.052;2023-02-28T18:26:31;10.23;;;7.10;;
47239;SDS011;32978;53.586;10.052;2023-02-28T18:31:28;9.80;;;7.25;;
47239;SDS011;32978;53.586;10.052;2023-02-28T18:36:25;11.00;;;6.90;;
47239;SDS011;32978;53.586;10.052;2023-02-28T18:41:22;10.77;;;7.57;;
47239;SDS011;32978;53.586;10.052;2023-02-28T18:46:20;10.07;;;7.20;;
47239;SDS011;32978;53.586;10.052;2023-02-28T18:51:18;8.43;;;7.07;;
47239;SDS011;32978;53.586;10.052;2023-02-28T18:56:17;11.52;;;7.15;;
47239;SDS011;32978;53.586;10.052;2023-02-28T19:01:16;7.47;;;6.70;;
47239;SDS011;32978;53.586;10.052;2023-02-28T19:06:16;8.70;;;6.60;;
47239;SDS011;32978;53.586;10.052;2023-02-28T19:11:15;8.07;;;7.22;;
47239;SDS011;32978;53.586;10.052;2023-02-28T19:16:14;9.40;;;7.07;;
47239;SDS011;32978;53.586;10.052;2023-02-28T19:21:12;10.52;;;7.53;;
47239;SDS011;32978;53.586;10.052;2023-02-28T19:26:11;8.55;;;7.28;;
47239;SDS011;32978;53.586;10.052;2023-02-28T19:31:17;9.00;;;7.88;;
47239;SDS011;32978;53.586;10.052;2023-02-28T19:36:15;12.52;;;7.95;;
47239;SDS011;32978;53.586;10.052;2023-02-28T19:41:13;17.75;;;9.30;;
47239;SDS011;32978;53.586;10.052;2023-02-28T19:46:10;12.82;;;8.18;;
47239;SDS011;32978;53.586;10.052;2023-02-28T19:51:08;14.52;;;8.25;;
47239;SDS011;32978;53.586;10.052;2023-02-28T19:56:08;12.52;;;8.40;;
47239;SDS011;32978;53.586;10.052;2023-02-28T20:01:06;12.68;;;8.35;;
47239;SDS011;32978;53.586;10.052;2023-02-28T20:06:05;10.07;;;7.50;;
47239;SDS011;32978;53.586;10.052;2023-02-28T20:11:06;12.48;;;8.55;;
47239;SDS011;32978;53.586;10.052;2023-02-28T20:16:06;14.98;;;8.55;;
47239;SDS011;32978;53.586;10.052;2023-02-28T20:21:06;13.48;;;8.45;;
47239;SDS011;32978;53.586;10.052;2023-02-28T20:26:04;15.13;;;9.32;;
47239;SDS011;32978;53.586;10.052;2023-02-28T20:31:01;12.20;;;8.48;;
47239;SDS011;32978;53.586;10.052;2023-02-28T20:35:58;14.82;;;9.38;;
47239;SDS011;32978;53.586;10.052;2023-02-28T20:41:00;16.67;;;9.52;;
47239;SDS011;32978;53.586;10.052;2023-02-28T20:45:57;18.15;;;8.80;;
47239;SDS011;32978;53.586;10.052;2023-02-28T20:50:57;16.42;;;9.18;;
47239;SDS011;32978;53.586;10.052;2023-02-28T21:01:26;22.92;;;9.27;;
47239;SDS011;32978;53.586;10.052;2023-02-28T21:06:22;15.30;;;9.73;;
47239;SDS011;32978;53.586;10.052;2023-02-28T21:11:22;13.73;;;8.85;;
47239;SDS011;32978;53.586;10.052;2023-02-28T21:16:24;17.73;;;9.77;;
47239;SDS011;32978;53.586;10.052;2023-02-28T21:21:22;18.42;;;9.40;;
47239;SDS011;32978;53.586;10.052;2023-02-28T21:26:21;14.50;;;10.75;;
47239;SDS011;32978;53.586;10.052;2023-02-28T21:31:19;19.02;;;9.35;;
47239;SDS011;32978;53.586;10.052;2023-02-28T21:36:18;19.88;;;9.57;;
47239;SDS011;32978;53.586;10.052;2023-02-28T21:41:17;19.15;;;9.52;;
47239;SDS011;32978;53.586;10.052;2023-02-28T21:46:17;20.15;;;10.45;;
47239;SDS011;32978;53.586;10.052;2023-02-28T21:51:17;19.92;;;10.02;;
47239;SDS011;32978;53.586;10.052;2023-02-28T21:56:22;18.75;;;10.95;;
47239;SDS011;32978;53.586;10.052;2023-02-28T22:01:20;22.30;;;11.77;;
47239;SDS011;32978;53.586;10.052;2023-02-28T22:06:19;20.45;;;11.05;;
47239;SDS011;32978;53.586;10.052;2023-02-28T22:11:18;17.98;;;11.15;;
47239;SDS011;32978;53.586;10.052;2023-02-28T22:16:17;20.13;;;10.63;;
47239;SDS011;32978;53.586;10.052;2023-02-28T22:21:15;20.20;;;11.60;;
47239;SDS011;32978;53.586;10.052;2023-02-28T22:26:14;19.52;;;10.35;;
47239;SDS011;32978;53.586;10.052;2023-02-28T22:31:16;29.95;;;12.00;;
47239;SDS011;32978;53.586;10.052;2023-02-28T22:36:14;21.02;;;11.38;;
47239;SDS011;32978;53.586;10.052;2023-02-28T22:41:12;22.85;;;12.40;;
47239;SDS011;32978;53.586;10.052;2023-02-28T22:46:10;28.52;;;13.23;;
47239;SDS011;32978;53.586;10.052;2023-02-28T22:51:09;23.98;;;13.60;;
47239;SDS011;32978;53.586;10.052;2023-02-28T22:56:10;26.33;;;13.57;;
47239;SDS011;32978;53.586;10.052;2023-02-28T23:01:11;23.27;;;14.13;;
47239;SDS011;32978;53.586;10.052;2023-02-28T23:11:19;32.40;;;15.57;;
47239;SDS011;32978;53.586;10.052;2023-02-28T23:16:17;27.67;;;15.68;;
47239;SDS011;32978;53.586;10.052;2023-02-28T23:21:14;26.52;;;15.85;;
47239;SDS011;32978;53.586;10.052;2023-02-28T23:26:10;25.80;;;15.43;;
47239;SDS011;32978;53.586;10.052;2023-02-28T23:31:07;29.65;;;15.50;;
47239;SDS011;32978;53.586;10.052;2023-02-28T23:36:10;28.48;;;15.98;;
47239;SDS011;32978;53.586;10.052;2023-02-28T23:41:11;25.00;;;14.77;;
47239;SDS011;32978;53.586;10.052;2023-02-28T23:46:09;27.38;;;17.00;;
47239;SDS011;32978;53.586;10.052;2023-02-28T23:51:12;30.10;;;16.58;;
47239;SDS011;32978;53.586;10.052;2023-02-28T23:56:13;36.78;;;17.38;;
